Friday, November 17, 2017, 4:12 PM EST
Back to Local

KSBY, Salisbury-wicomico Cty Reg

Location: Salisbury, MD, United States Lat: 38.333
Local Time: 4:12 PM EST (21:12 GMT) Lon: -75.5
Time Zone: US/Eastern Elev: 52 ft

Show me the last for .
Show Coded

Time T Td Feel RH Dir Speed Gust Alt SLP Vis Weather Sky Remarks
2017-11-17 15:54 48 30 44 49 300° 8 - 30.14 30.14 10 CLR None
2017-11-17 14:54 51 30 - 44 320° 10 - 30.13 30.13 10 CLR None
2017-11-17 13:54 52 30 - 42 330° 16 21 30.13 30.14 10 CLR None
2017-11-17 12:54 51 30 - 44 310° 14 23 30.14 30.14 10 CLR 6-hr Min Temp (1pm): 39.9°F
6-hr Max Temp (1pm): 52.0°F
2017-11-17 11:54 51 32 - 47 300° 10 - 30.14 30.14 10 CLR None
2017-11-17 10:54 49 31 42 49 320° 18 - 30.16 30.17 10 CLR None
2017-11-17 09:54 48 32 41 53 320° 15 22 30.17 30.18 10 CLR None
2017-11-17 08:54 46 33 40 60 330° 13 - 30.18 30.18 10 CLR None
2017-11-17 07:54 44 32 38 62 320° 12 - 30.17 30.17 10 CLR None
2017-11-17 06:54 41 31 36 67 330° 8 - 30.14 30.14 10 CLR 6-hr Min Temp (7am): 39.9°F
6-hr Max Temp (7am): 44.1°F
2017-11-17 05:54 42 31 37 64 300° 9 - 30.12 30.12 10 CLR None
2017-11-17 04:54 41 32 36 70 280° 7 - 30.11 30.12 10 CLR None
2017-11-17 03:54 43 32 37 64 280° 10 - 30.09 30.09 10 CLR None
2017-11-17 02:54 42 32 37 67 280° 8 - 30.09 30.10 10 CLR None
2017-11-17 01:54 43 32 39 64 290° 6 - 30.09 30.09 10 CLR None
2017-11-17 00:54 44 31 39 59 300° 10 - 30.07 30.08 10 CLR 6-hr Min Temp (1am): 43.0°F
6-hr Max Temp (1am): 52.0°F
2017-11-16 23:54 44 31 39 59 300° 9 - 30.07 30.07 10 CLR 24-hr Min Temp (12am): 44.1°F
24-hr Max Temp (12am): 60.1°F
2017-11-16 22:54 45 31 40 57 310° 9 - 30.05 30.06 10 CLR None
2017-11-16 21:54 46 32 38 57 320° 14 24 30.04 30.04 10 CLR None
2017-11-16 20:54 48 34 40 58 330° 13 23 30.01 30.02 10 CLR None
2017-11-16 19:54 51 35 - 54 310° 14 20 29.98 29.99 10 CLR None
2017-11-16 18:54 52 36 - 54 330° 9 18 29.97 29.97 10 CLR 6-hr Min Temp (7pm): 52.0°F
6-hr Max Temp (7pm): 60.1°F
2017-11-16 17:54 53 40 - 60 260° 5 - 29.94 29.94 10 BKN070 None
2017-11-16 16:54 54 39 - 56 260° 6 - 29.90 29.91 10 CLR None

Support USWX by starting your Amazon purchase here.